createdAt,value
2019-05-03T00:02:26.291Z,33.25
2019-05-03T00:05:26.745Z,33.63
2019-05-03T00:08:04.396Z,33.45
2019-05-03T00:10:32.722Z,34.92
2019-05-03T00:13:01.884Z,35.33
2019-05-03T00:15:49.115Z,35.30
2019-05-03T00:18:16.942Z,34.33
2019-05-03T00:20:44.321Z,35.80
2019-05-03T00:23:12.091Z,36.77
2019-05-03T00:25:41.483Z,38.50
2019-05-03T00:28:08.981Z,37.25
2019-05-03T00:30:36.382Z,34.60
2019-05-03T00:33:04.010Z,36.88
2019-05-03T00:35:51.838Z,32.42
2019-05-03T00:38:19.404Z,35.17
2019-05-03T00:40:46.869Z,37.03
2019-05-03T00:43:14.483Z,34.78
2019-05-03T00:45:42.291Z,36.45
2019-05-03T00:48:09.649Z,35.95
2019-05-03T00:50:36.972Z,35.43
2019-05-03T00:53:04.292Z,39.15
2019-05-03T00:55:32.793Z,36.30
2019-05-03T00:58:02.331Z,35.58
2019-05-03T01:00:30.026Z,36.55
2019-05-03T01:02:57.472Z,35.65
2019-05-03T01:05:25.306Z,35.13
2019-05-03T01:07:52.740Z,37.75
2019-05-03T01:10:20.066Z,34.38
2019-05-03T01:12:47.816Z,36.00
2019-05-03T01:15:23.172Z,36.08
2019-05-03T01:17:52.445Z,35.48
2019-05-03T01:20:20.177Z,36.70
2019-05-03T01:22:47.516Z,35.30
2019-05-03T01:25:14.871Z,34.98
2019-05-03T01:27:43.282Z,32.67
2019-05-03T01:30:11.919Z,35.30
2019-05-03T01:32:39.374Z,35.23
2019-05-03T01:35:07.133Z,34.53
2019-05-03T01:37:34.767Z,36.05
2019-05-03T01:40:02.523Z,36.45
2019-05-03T01:42:31.936Z,38.55
2019-05-03T01:45:01.546Z,36.40
2019-05-03T01:47:36.718Z,40.52
2019-05-03T01:50:12.785Z,37.88
2019-05-03T01:52:41.973Z,38.60
2019-05-03T01:55:13.970Z,39.27
2019-05-03T01:57:39.401Z,40.38
2019-05-03T02:00:12.403Z,40.03
2019-05-03T02:02:59.292Z,40.78
2019-05-03T02:05:43.038Z,40.85
2019-05-03T02:08:12.746Z,41.85
2019-05-03T02:10:40.103Z,43.27
2019-05-03T02:13:07.799Z,45.25
2019-05-03T02:15:35.139Z,46.77
2019-05-03T02:18:03.094Z,50.52
2019-05-03T02:20:32.280Z,48.63
2019-05-03T02:22:59.800Z,47.03
2019-05-03T02:25:27.159Z,48.38
2019-05-03T02:27:54.631Z,49.77
2019-05-03T02:30:24.706Z,52.10
2019-05-03T02:32:53.324Z,51.60
2019-05-03T02:35:22.751Z,48.35
2019-05-03T02:37:53.442Z,52.10
2019-05-03T02:40:24.537Z,50.20
2019-05-03T02:43:08.046Z,47.23
2019-05-03T02:45:40.916Z,42.38
2019-05-03T02:48:16.624Z,45.07
2019-05-03T02:50:45.245Z,47.35
2019-05-03T02:53:12.717Z,47.23
2019-05-03T02:55:40.211Z,46.73
2019-05-03T02:58:07.898Z,55.78
2019-05-03T03:00:56.066Z,50.17
2019-05-03T03:03:25.472Z,51.25
2019-05-03T03:05:56.103Z,48.10
2019-05-03T03:08:26.684Z,48.25
2019-05-03T03:10:59.275Z,48.00
2019-05-03T03:13:29.550Z,48.73
2019-05-03T03:16:01.463Z,47.62
2019-05-03T03:18:32.393Z,51.53
2019-05-03T03:20:59.752Z,50.20
2019-05-03T03:23:31.559Z,45.78
2019-05-03T03:26:02.557Z,49.97
2019-05-03T03:28:32.722Z,47.03
2019-05-03T03:31:30.654Z,48.70
2019-05-03T03:34:01.647Z,51.65
2019-05-03T03:36:53.257Z,50.28
2019-05-03T03:39:01.329Z,47.13
2019-05-03T03:41:29.997Z,44.50
2019-05-03T03:43:57.955Z,45.93
2019-05-03T03:46:27.216Z,50.05
2019-05-03T03:48:56.032Z,45.92
2019-05-03T03:51:26.150Z,50.10
2019-05-03T03:53:55.458Z,45.35
2019-05-03T03:56:25.579Z,42.90
2019-05-03T03:58:55.386Z,44.67
2019-05-03T04:01:22.369Z,43.43
2019-05-03T04:03:49.653Z,46.13
2019-05-03T04:06:17.295Z,42.53
2019-05-03T04:08:45.353Z,44.55
2019-05-03T04:11:15.425Z,43.73
2019-05-03T04:13:45.201Z,44.40
2019-05-03T04:16:36.333Z,39.05
2019-05-03T04:19:08.524Z,39.80
2019-05-03T04:21:36.107Z,37.38
2019-05-03T04:24:05.888Z,40.10
2019-05-03T04:26:35.618Z,39.98
2019-05-03T04:29:05.438Z,39.43
2019-05-03T04:31:32.561Z,40.00
2019-05-03T04:33:59.997Z,35.70
2019-05-03T04:36:27.441Z,35.40
2019-05-03T04:38:56.213Z,40.75
2019-05-03T04:41:26.627Z,36.93
2019-05-03T04:43:55.389Z,39.07
2019-05-03T04:46:25.838Z,36.90
2019-05-03T04:48:55.903Z,35.83
2019-05-03T04:51:22.322Z,38.28
2019-05-03T04:53:55.818Z,34.98
2019-05-03T04:56:25.156Z,38.97
2019-05-03T04:58:52.452Z,34.10
2019-05-03T05:01:20.112Z,36.00
2019-05-03T05:03:47.477Z,35.65
2019-05-03T05:06:15.591Z,32.00
2019-05-03T05:08:45.848Z,32.00
2019-05-03T05:11:15.564Z,31.15
2019-05-03T05:13:42.726Z,30.05
2019-05-03T05:16:10.431Z,31.27
2019-05-03T05:18:45.786Z,29.70
2019-05-03T05:21:25.561Z,34.05
2019-05-03T05:23:58.322Z,29.98
2019-05-03T05:26:29.248Z,31.65
2019-05-03T05:28:59.679Z,29.15
2019-05-03T05:31:26.994Z,27.40
2019-05-03T05:33:54.577Z,27.42
2019-05-03T05:36:22.171Z,27.62
2019-05-03T05:38:49.626Z,27.48
2019-05-03T05:41:17.259Z,27.10
2019-05-03T05:43:44.814Z,27.02
2019-05-03T05:46:14.499Z,28.15
2019-05-03T05:48:46.739Z,25.75
2019-05-03T05:51:15.974Z,26.40
2019-05-03T05:53:44.731Z,27.93
2019-05-03T05:56:30.554Z,27.32
2019-05-03T05:59:04.934Z,27.25
2019-05-03T06:01:40.016Z,29.72
2019-05-03T06:04:10.003Z,29.70
2019-05-03T06:06:59.752Z,28.57
2019-05-03T06:09:39.571Z,27.95
2019-05-03T06:12:29.467Z,28.42
2019-05-03T06:15:00.046Z,26.82
2019-05-03T06:17:34.828Z,28.50
2019-05-03T06:20:40.624Z,27.17
2019-05-03T06:23:19.800Z,29.35
2019-05-03T06:25:47.135Z,28.27
2019-05-03T06:28:35.248Z,29.52
2019-05-03T06:31:21.134Z,26.80
2019-05-03T06:33:48.467Z,28.57
2019-05-03T06:36:15.833Z,30.17
2019-05-03T06:38:44.711Z,27.63
2019-05-03T06:41:12.333Z,28.70
2019-05-03T06:43:45.068Z,26.42
2019-05-03T06:46:09.440Z,28.70
2019-05-03T06:48:36.888Z,25.95
2019-05-03T06:51:06.044Z,30.02
2019-05-03T06:53:34.577Z,27.90
2019-05-03T06:56:02.182Z,32.10
2019-05-03T06:58:33.055Z,30.12
2019-05-03T07:01:11.338Z,27.60
2019-05-03T07:03:44.851Z,29.70
2019-05-03T07:06:45.098Z,31.80
2019-05-03T07:09:29.915Z,32.20
2019-05-03T07:11:57.250Z,33.55
2019-05-03T07:14:24.763Z,31.30
2019-05-03T07:16:52.229Z,30.88
2019-05-03T07:19:19.568Z,29.75
2019-05-03T07:21:47.012Z,29.92
2019-05-03T07:24:14.745Z,29.27
2019-05-03T07:26:44.669Z,32.10
2019-05-03T07:29:12.114Z,30.25
2019-05-03T07:31:39.837Z,30.60
2019-05-03T07:34:07.181Z,30.45
2019-05-03T07:36:35.547Z,27.37
2019-05-03T07:39:05.611Z,25.48
2019-05-03T07:41:35.392Z,27.73
2019-05-03T07:44:05.208Z,25.43
2019-05-03T07:46:32.261Z,15.75
2019-05-03T07:49:00.007Z,8.15
2019-05-03T07:51:27.546Z,7.17
2019-05-03T07:53:55.536Z,7.20
2019-05-03T07:56:26.101Z,7.30
2019-05-03T07:59:02.669Z,7.25
2019-05-03T08:01:35.628Z,7.47
2019-05-03T08:04:05.501Z,7.78
2019-05-03T08:06:34.596Z,7.67
2019-05-03T08:09:02.380Z,7.83
2019-05-03T08:11:30.070Z,8.13
2019-05-03T08:13:58.082Z,8.68
2019-05-03T08:16:25.413Z,7.95
2019-05-03T08:18:52.783Z,8.10
2019-05-03T08:21:20.268Z,6.62
2019-05-03T08:23:47.823Z,8.53
2019-05-03T08:26:15.378Z,7.78
2019-05-03T08:28:44.476Z,7.08
2019-05-03T08:31:26.504Z,6.70
2019-05-03T08:34:04.830Z,7.65
2019-05-03T08:36:51.864Z,7.03
2019-05-03T08:39:19.337Z,8.03
2019-05-03T08:41:56.658Z,10.30
2019-05-03T08:44:25.022Z,6.60
2019-05-03T08:46:56.264Z,6.05
2019-05-03T08:49:22.128Z,5.70
2019-05-03T08:51:49.924Z,7.00
2019-05-03T08:54:17.307Z,7.00
2019-05-03T08:56:45.175Z,7.42
2019-05-03T08:59:26.557Z,7.20
2019-05-03T09:01:42.067Z,7.33
2019-05-03T09:04:09.815Z,9.48
2019-05-03T09:06:37.193Z,6.00
2019-05-03T09:09:07.417Z,8.60
2019-05-03T09:11:36.798Z,6.20
2019-05-03T09:14:06.540Z,6.45
2019-05-03T09:16:35.563Z,6.90
2019-05-03T09:19:05.385Z,6.53
2019-05-03T09:21:32.355Z,9.15
2019-05-03T09:23:59.699Z,6.50
2019-05-03T09:26:29.514Z,6.22
2019-05-03T09:28:56.566Z,9.43
2019-05-03T09:31:24.665Z,7.17
2019-05-03T09:33:54.568Z,11.25
2019-05-03T09:36:21.860Z,7.70
2019-05-03T09:38:49.195Z,8.73
2019-05-03T09:41:16.518Z,9.13
2019-05-03T09:43:45.013Z,8.83
2019-05-03T09:46:14.527Z,9.53
2019-05-03T09:48:42.195Z,8.10
2019-05-03T09:51:09.507Z,9.05
2019-05-03T09:53:44.996Z,8.50
2019-05-03T09:56:12.337Z,10.13
2019-05-03T09:58:39.836Z,7.00
2019-05-03T10:01:08.633Z,8.38
2019-05-03T10:03:36.618Z,5.90
2019-05-03T10:06:04.151Z,6.58
2019-05-03T10:08:31.571Z,7.03
2019-05-03T10:11:11.200Z,7.28
2019-05-03T10:13:41.680Z,6.40
2019-05-03T10:16:07.963Z,6.10
2019-05-03T10:18:35.545Z,6.22
2019-05-03T10:21:05.309Z,5.40
2019-05-03T10:23:39.204Z,4.37
2019-05-03T10:26:06.850Z,3.77
2019-05-03T10:28:34.268Z,3.98
2019-05-03T10:31:04.960Z,4.80
2019-05-03T10:33:36.467Z,3.33
2019-05-03T10:36:05.464Z,3.05
2019-05-03T10:38:32.963Z,7.62
2019-05-03T10:41:00.691Z,3.47
2019-05-03T10:43:28.040Z,8.25
2019-05-03T10:45:55.844Z,2.35
2019-05-03T10:48:24.833Z,3.72
2019-05-03T10:50:52.519Z,3.12
2019-05-03T10:53:27.616Z,2.62
2019-05-03T10:56:14.793Z,2.30
2019-05-03T10:58:45.319Z,2.55
2019-05-03T11:01:14.357Z,2.95
2019-05-03T11:03:41.705Z,1.70
2019-05-03T11:06:09.410Z,1.77
2019-05-03T11:08:36.791Z,2.42
2019-05-03T11:11:05.938Z,1.75
2019-05-03T11:13:34.962Z,1.92
2019-05-03T11:16:02.567Z,1.70
2019-05-03T11:18:30.023Z,1.95
2019-05-03T11:20:57.364Z,1.57
2019-05-03T11:23:25.162Z,1.92
2019-05-03T11:25:52.681Z,2.27
2019-05-03T11:28:24.959Z,3.90
2019-05-03T11:30:59.105Z,2.17
2019-05-03T11:33:30.148Z,2.90
2019-05-03T11:36:20.055Z,4.30
2019-05-03T11:38:47.887Z,2.45
2019-05-03T11:41:23.347Z,2.08
2019-05-03T11:43:44.579Z,2.25
2019-05-03T11:46:11.985Z,4.83
2019-05-03T11:48:39.574Z,4.53
2019-05-03T11:51:06.959Z,2.50
2019-05-03T11:53:35.658Z,2.42
2019-05-03T11:56:05.421Z,2.83
2019-05-03T11:58:34.607Z,1.85
2019-05-03T12:01:21.509Z,2.72
2019-05-03T12:04:02.431Z,3.02
2019-05-03T12:06:29.837Z,2.77
2019-05-03T12:08:57.462Z,2.10
2019-05-03T12:11:25.852Z,2.22
2019-05-03T12:14:10.307Z,2.10
2019-05-03T12:17:12.313Z,2.27
2019-05-03T12:19:17.168Z,2.15
2019-05-03T12:21:38.494Z,1.95
2019-05-03T12:24:07.037Z,2.20
2019-05-03T12:26:43.740Z,1.82
2019-05-03T12:29:04.610Z,1.87
2019-05-03T12:31:39.544Z,1.80
2019-05-03T12:34:01.973Z,2.05
2019-05-03T12:36:30.043Z,2.37
2019-05-03T12:38:57.520Z,2.50
2019-05-03T12:41:25.454Z,3.98
2019-05-03T12:43:55.034Z,2.40
2019-05-03T12:46:22.382Z,2.35
2019-05-03T12:48:49.929Z,3.15
2019-05-03T12:51:17.372Z,2.40
2019-05-03T12:53:45.315Z,2.60
2019-05-03T12:56:14.291Z,2.92
2019-05-03T12:58:51.611Z,2.70
2019-05-03T13:01:48.300Z,3.12
2019-05-03T13:04:18.879Z,3.52
2019-05-03T13:06:51.735Z,3.52
2019-05-03T13:09:19.096Z,4.08
2019-05-03T13:11:55.282Z,3.72
2019-05-03T13:14:17.756Z,3.12
2019-05-03T13:16:45.108Z,3.33
2019-05-03T13:19:15.107Z,4.50
2019-05-03T13:21:42.355Z,3.67
2019-05-03T13:24:22.521Z,3.65
2019-05-03T13:26:39.368Z,4.08
2019-05-03T13:29:07.278Z,4.42
2019-05-03T13:31:34.824Z,4.25
2019-05-03T13:34:02.202Z,4.17
2019-05-03T13:36:29.805Z,4.12
2019-05-03T13:39:11.430Z,6.10
2019-05-03T13:41:26.563Z,5.30
2019-05-03T13:43:54.881Z,5.40
2019-05-03T13:46:24.478Z,6.08
2019-05-03T13:48:51.683Z,5.03
2019-05-03T13:51:19.076Z,5.33
2019-05-03T13:53:46.526Z,5.92
2019-05-03T13:56:15.271Z,3.77
2019-05-03T13:58:44.446Z,5.10
2019-05-03T14:01:12.057Z,3.70
2019-05-03T14:03:39.441Z,4.10
2019-05-03T14:06:09.178Z,4.15
2019-05-03T14:08:36.603Z,3.67
2019-05-03T14:11:05.119Z,3.72
2019-05-03T14:13:35.088Z,4.12
2019-05-03T14:16:02.340Z,4.03
2019-05-03T14:18:29.869Z,4.15
2019-05-03T14:21:16.222Z,4.20
2019-05-03T14:24:01.719Z,5.50
2019-05-03T14:26:29.056Z,5.55
2019-05-03T14:28:56.438Z,4.97
2019-05-03T14:31:25.233Z,6.78
2019-05-03T14:33:52.785Z,6.15
2019-05-03T14:36:20.645Z,6.08
2019-05-03T14:38:48.588Z,5.97
2019-05-03T14:41:15.993Z,6.42
2019-05-03T14:43:44.044Z,7.70
2019-05-03T14:46:11.392Z,5.37
2019-05-03T14:48:38.850Z,5.80
2019-05-03T14:51:06.383Z,4.92
2019-05-03T14:53:34.851Z,5.30
2019-05-03T14:56:09.682Z,5.78
2019-05-03T14:59:05.966Z,5.78
2019-05-03T15:01:39.137Z,6.72
2019-05-03T15:04:07.317Z,5.30
2019-05-03T15:06:35.394Z,5.95
2019-05-03T15:09:05.397Z,6.00
2019-05-03T15:11:34.550Z,5.53
2019-05-03T15:14:02.040Z,9.55
2019-05-03T15:16:29.828Z,6.35
2019-05-03T15:18:57.272Z,5.50
2019-05-03T15:21:25.226Z,5.30
2019-05-03T15:23:54.682Z,5.42
2019-05-03T15:26:22.289Z,5.67
2019-05-03T15:28:49.820Z,5.87
2019-05-03T15:31:17.142Z,6.10
2019-05-03T15:33:44.995Z,5.42
2019-05-03T15:36:12.653Z,6.03
2019-05-03T15:38:40.277Z,5.45
2019-05-03T15:41:08.009Z,6.15
2019-05-03T15:43:42.434Z,6.45
2019-05-03T15:46:20.010Z,7.90
2019-05-03T15:48:50.383Z,5.40
2019-05-03T15:51:17.790Z,7.00
2019-05-03T15:53:45.279Z,6.25
2019-05-03T15:56:14.519Z,6.50
2019-05-03T15:58:44.379Z,6.50
2019-05-03T16:01:11.454Z,7.03
2019-05-03T16:03:38.893Z,6.25
2019-05-03T16:06:06.235Z,5.70
2019-05-03T16:08:33.967Z,5.83
2019-05-03T16:11:01.430Z,5.70
2019-05-03T16:13:28.797Z,7.37
2019-05-03T16:15:56.194Z,7.37
2019-05-03T16:18:24.529Z,8.28
2019-05-03T16:20:52.184Z,6.15
2019-05-03T16:23:19.868Z,5.58
2019-05-03T16:25:47.530Z,6.87
2019-05-03T16:28:20.651Z,6.00
2019-05-03T16:30:55.478Z,5.62
2019-05-03T16:33:27.596Z,5.53
2019-05-03T16:35:52.331Z,5.53
2019-05-03T16:38:19.628Z,6.97
2019-05-03T16:40:47.353Z,9.75
2019-05-03T16:43:16.140Z,9.35
2019-05-03T16:45:44.584Z,7.37
2019-05-03T16:48:12.049Z,10.08
2019-05-03T16:50:39.421Z,8.08
2019-05-03T16:53:06.831Z,5.58
2019-05-03T16:55:35.159Z,7.85
2019-05-03T16:58:03.084Z,6.80
2019-05-03T17:00:30.535Z,10.15
2019-05-03T17:02:58.301Z,6.15
2019-05-03T17:05:41.322Z,8.25
2019-05-03T17:08:40.258Z,7.53
2019-05-03T17:11:09.839Z,6.47
2019-05-03T17:13:37.242Z,6.50
2019-05-03T17:16:05.112Z,5.92
2019-05-03T17:18:35.301Z,5.90
2019-05-03T17:21:03.235Z,6.40
2019-05-03T17:23:30.774Z,7.50
2019-05-03T17:25:58.602Z,8.65
2019-05-03T17:28:26.086Z,6.62
2019-05-03T17:30:55.241Z,6.55
2019-05-03T17:33:22.629Z,6.53
2019-05-03T17:35:50.303Z,6.30
2019-05-03T17:38:17.690Z,6.67
2019-05-03T17:41:00.655Z,6.15
2019-05-03T17:43:31.958Z,5.72
2019-05-03T17:45:59.664Z,6.00
2019-05-03T17:48:27.152Z,7.25
2019-05-03T17:50:55.056Z,5.42
2019-05-03T17:53:55.126Z,4.95
2019-05-03T17:56:51.310Z,5.53
2019-05-03T17:59:38.400Z,6.78
2019-05-03T18:02:11.279Z,5.10
2019-05-03T18:05:05.247Z,6.72
2019-05-03T18:07:54.563Z,7.22
2019-05-03T18:10:24.135Z,7.47
2019-05-03T18:12:51.775Z,5.17
2019-05-03T18:15:19.240Z,7.33
2019-05-03T18:17:46.949Z,5.28
2019-05-03T18:20:15.033Z,5.65
2019-05-03T18:22:42.599Z,5.28
2019-05-03T18:25:10.780Z,6.60
2019-05-03T18:27:38.587Z,6.87
2019-05-03T18:30:06.579Z,6.80
2019-05-03T18:32:34.475Z,7.55
2019-05-03T18:35:04.783Z,5.25
2019-05-03T18:37:32.186Z,6.58
2019-05-03T18:39:59.470Z,6.95
2019-05-03T18:42:35.736Z,5.90
2019-05-03T18:45:10.021Z,5.28
2019-05-03T18:47:37.938Z,6.37
2019-05-03T18:50:05.387Z,7.33
2019-05-03T18:52:34.450Z,6.47
2019-05-03T18:55:02.182Z,5.92
2019-05-03T18:57:29.855Z,5.58
2019-05-03T18:59:57.535Z,5.25
2019-05-03T19:02:25.504Z,5.62
2019-05-03T19:04:54.848Z,7.50
2019-05-03T19:07:34.584Z,5.78
2019-05-03T19:10:16.697Z,5.97
2019-05-03T19:13:06.189Z,7.30
2019-05-03T19:15:34.632Z,6.00
2019-05-03T19:18:10.044Z,6.33
2019-05-03T19:20:37.484Z,8.80
2019-05-03T19:23:05.378Z,6.90
2019-05-03T19:25:44.045Z,6.05
2019-05-03T19:28:02.285Z,5.43
2019-05-03T19:30:31.143Z,6.72
2019-05-03T19:32:58.615Z,8.13
2019-05-03T19:35:27.700Z,5.85
2019-05-03T19:37:55.546Z,5.92
2019-05-03T19:40:23.081Z,5.90
2019-05-03T19:42:50.869Z,4.67
2019-05-03T19:45:18.465Z,4.80
2019-05-03T19:47:45.903Z,6.62
2019-05-03T19:50:15.542Z,5.92
2019-05-03T19:53:14.514Z,6.65
2019-05-03T19:55:42.370Z,6.97
2019-05-03T19:58:09.944Z,5.60
2019-05-03T20:00:48.449Z,5.90
2019-05-03T20:03:20.087Z,6.07
2019-05-03T20:06:05.864Z,6.58
2019-05-03T20:08:37.457Z,6.17
2019-05-03T20:11:28.204Z,6.92
2019-05-03T20:13:56.154Z,6.22
2019-05-03T20:16:24.503Z,5.60
2019-05-03T20:18:55.377Z,7.90
2019-05-03T20:21:22.653Z,8.47
2019-05-03T20:23:51.055Z,6.93
2019-05-03T20:26:19.027Z,7.70
2019-05-03T20:28:46.599Z,6.73
2019-05-03T20:31:14.278Z,7.07
2019-05-03T20:33:42.002Z,9.57
2019-05-03T20:36:09.628Z,8.00
2019-05-03T20:38:37.559Z,5.80
2019-05-03T20:41:05.561Z,5.80
2019-05-03T20:43:59.010Z,5.37
2019-05-03T20:46:56.821Z,6.40
2019-05-03T20:49:27.179Z,5.60
2019-05-03T20:51:55.704Z,5.53
2019-05-03T20:54:25.011Z,5.92
2019-05-03T20:56:54.690Z,6.17
2019-05-03T20:59:23.141Z,7.62
2019-05-03T21:01:51.241Z,6.30
2019-05-03T21:04:18.759Z,7.03
2019-05-03T21:06:46.527Z,6.12
2019-05-03T21:09:14.921Z,8.73
2019-05-03T21:11:44.597Z,6.90
2019-05-03T21:14:15.284Z,8.47
2019-05-03T21:17:15.035Z,6.80
2019-05-03T21:19:50.594Z,6.37
2019-05-03T21:22:24.925Z,6.33
2019-05-03T21:25:12.838Z,6.78
2019-05-03T21:27:40.578Z,6.40
2019-05-03T21:30:07.999Z,7.65
2019-05-03T21:32:35.294Z,7.37
2019-05-03T21:35:05.102Z,6.20
2019-05-03T21:37:32.530Z,6.70
2019-05-03T21:40:00.186Z,6.73
2019-05-03T21:42:27.611Z,7.93
2019-05-03T21:44:55.761Z,7.27
2019-05-03T21:47:41.992Z,9.40
2019-05-03T21:50:12.126Z,6.97
2019-05-03T21:52:40.295Z,7.37
2019-05-03T21:55:07.905Z,7.53
2019-05-03T21:57:35.697Z,8.37
2019-05-03T22:00:05.521Z,6.70
2019-05-03T22:02:33.174Z,6.50
2019-05-03T22:05:01.110Z,6.80
2019-05-03T22:07:28.762Z,7.50
2019-05-03T22:09:56.407Z,6.97
2019-05-03T22:12:24.881Z,6.83
2019-05-03T22:14:58.334Z,6.90
2019-05-03T22:17:44.769Z,7.33
2019-05-03T22:20:21.399Z,8.73
2019-05-03T22:23:01.398Z,8.73
2019-05-03T22:25:31.271Z,9.87
2019-05-03T22:27:58.633Z,7.93
2019-05-03T22:30:26.904Z,8.07
2019-05-03T22:32:55.157Z,8.93
2019-05-03T22:35:24.952Z,8.67
2019-05-03T22:37:51.939Z,8.60
2019-05-03T22:40:19.699Z,11.23
2019-05-03T22:42:47.063Z,10.10
2019-05-03T22:45:14.581Z,11.40
2019-05-03T22:47:41.876Z,10.07
2019-05-03T22:50:09.778Z,11.13
2019-05-03T22:52:37.372Z,11.57
2019-05-03T22:55:05.040Z,12.50
2019-05-03T22:57:34.866Z,9.63
2019-05-03T23:00:02.116Z,10.50
2019-05-03T23:02:29.999Z,12.07
2019-05-03T23:04:57.363Z,9.70
2019-05-03T23:07:25.150Z,8.77
2019-05-03T23:09:52.928Z,8.93
2019-05-03T23:12:20.537Z,8.50
2019-05-03T23:14:48.069Z,8.83
2019-05-03T23:17:16.447Z,11.53
2019-05-03T23:19:48.827Z,10.50
2019-05-03T23:22:20.991Z,8.50
2019-05-03T23:24:48.689Z,9.33
2019-05-03T23:27:16.062Z,9.43
2019-05-03T23:29:45.420Z,8.87
2019-05-03T23:32:15.187Z,9.40
2019-05-03T23:34:42.763Z,11.67
2019-05-03T23:37:10.211Z,11.80
2019-05-03T23:39:38.077Z,10.30
2019-05-03T23:42:05.679Z,11.63
2019-05-03T23:44:35.092Z,11.60
2019-05-03T23:47:25.360Z,10.23
2019-05-03T23:49:52.822Z,11.10
2019-05-03T23:52:35.268Z,10.57
2019-05-03T23:55:07.025Z,10.77
2019-05-03T23:57:35.693Z,10.30
